Time;durP1;ratioP1;P1;durP2;ratioP2;P2;SDS_P1;SDS_P2;PMS_P1;PMS_P2;Temp;Humidity;BMP_temperature;BMP_pressure;BME280_temperature;BME280_humidity;BME280_pressure;Samples;Min_cycle;Max_cycle;Signal;HPM_P1;HPM_P2
2021/07/22 00:00:10;;;;;;;22.58;15.35;;;20.60;99.90;;;;;;5054661;28;20040;-86
2021/07/22 00:02:36;;;;;;;22.40;15.00;;;20.70;99.90;;;;;;5055585;28;20441;-87
2021/07/22 00:05:02;;;;;;;20.30;14.77;;;20.70;99.90;;;;;;5054867;28;20017;-87
2021/07/22 00:07:29;;;;;;;20.60;14.82;;;20.60;99.90;;;;;;5054716;28;20037;-87
2021/07/22 00:09:54;;;;;;;19.42;14.25;;;20.50;99.90;;;;;;5054726;28;20032;-87
2021/07/22 00:12:20;;;;;;;19.05;15.52;;;20.50;99.90;;;;;;5036207;28;20021;-87
2021/07/22 00:14:46;;;;;;;18.13;14.93;;;20.40;99.90;;;;;;5054891;28;20743;-87
2021/07/22 00:17:11;;;;;;;18.98;14.68;;;20.40;99.90;;;;;;5036740;28;20040;-87
2021/07/22 00:19:38;;;;;;;20.55;14.70;;;20.40;99.90;;;;;;5055143;28;20017;-86
2021/07/22 00:22:04;;;;;;;18.92;14.48;;;20.40;99.90;;;;;;5056286;28;20033;-87
2021/07/22 00:24:30;;;;;;;19.48;15.18;;;20.20;99.90;;;;;;5036101;28;20028;-86
2021/07/22 00:26:56;;;;;;;19.20;14.98;;;20.20;99.90;;;;;;5055803;28;20071;-87
2021/07/22 00:29:21;;;;;;;22.08;14.98;;;20.30;99.90;;;;;;5054797;28;20037;-86
2021/07/22 00:31:47;;;;;;;18.02;15.13;;;20.30;99.90;;;;;;5054355;28;20029;-86
2021/07/22 00:34:13;;;;;;;21.38;15.13;;;20.20;99.90;;;;;;5053695;28;20032;-87
2021/07/22 00:36:39;;;;;;;19.80;14.27;;;20.30;99.90;;;;;;5036512;28;20056;-87
2021/07/22 00:39:05;;;;;;;20.20;14.45;;;20.30;99.90;;;;;;5036472;28;20017;-86
2021/07/22 00:41:31;;;;;;;17.45;14.43;;;20.10;99.90;;;;;;5054701;28;20033;-86
2021/07/22 00:43:57;;;;;;;18.88;14.40;;;20.10;99.90;;;;;;5053717;28;20033;-86
2021/07/22 00:46:22;;;;;;;22.95;15.57;;;20.00;99.90;;;;;;5037307;28;20029;-86
2021/07/22 00:48:49;;;;;;;19.58;14.50;;;20.10;99.90;;;;;;5054279;28;20025;-86
2021/07/22 00:51:14;;;;;;;20.35;15.27;;;20.00;99.90;;;;;;5035657;28;20024;-86
2021/07/22 00:53:40;;;;;;;17.15;13.65;;;20.00;99.90;;;;;;5053534;28;20021;-86
2021/07/22 00:56:06;;;;;;;19.27;15.10;;;19.90;99.90;;;;;;5053662;28;20033;-86
2021/07/22 00:58:32;;;;;;;18.13;14.52;;;19.80;99.90;;;;;;5053898;28;20112;-86
2021/07/22 01:00:58;;;;;;;19.70;14.57;;;19.80;99.90;;;;;;5054128;28;20036;-86
2021/07/22 01:03:24;;;;;;;18.77;14.05;;;19.80;99.90;;;;;;5053762;28;20025;-86
2021/07/22 01:05:49;;;;;;;19.88;14.93;;;19.70;99.90;;;;;;5053270;28;20045;-86
2021/07/22 01:08:15;;;;;;;19.88;14.57;;;19.70;99.90;;;;;;5053339;28;20041;-86
2021/07/22 01:10:40;;;;;;;18.67;13.93;;;19.70;99.90;;;;;;5053213;28;20115;-86
2021/07/22 01:13:06;;;;;;;17.48;14.18;;;19.80;99.90;;;;;;5036521;28;20025;-86
2021/07/22 01:15:33;;;;;;;19.00;14.27;;;19.80;99.90;;;;;;5054027;28;20064;-87
2021/07/22 01:17:58;;;;;;;21.38;14.85;;;19.70;99.90;;;;;;5052911;28;20359;-86
2021/07/22 01:20:25;;;;;;;21.00;14.98;;;19.70;99.90;;;;;;5053910;28;20048;-87
2021/07/22 01:22:54;;;;;;;19.70;14.95;;;19.80;1.00;;;;;;5053136;28;20025;-86
2021/07/22 01:25:21;;;;;;;21.58;15.07;;;19.60;99.90;;;;;;5053590;28;20017;-86
2021/07/22 01:27:48;;;;;;;20.20;15.57;;;19.50;99.90;;;;;;5054514;28;20037;-86
2021/07/22 01:30:14;;;;;;;17.63;13.25;;;19.50;1.00;;;;;;5052996;28;20029;-87
2021/07/22 01:32:41;;;;;;;17.60;13.60;;;19.50;1.00;;;;;;5053897;28;20406;-86
2021/07/22 01:35:08;;;;;;;18.27;14.98;;;19.50;1.00;;;;;;5053241;28;20029;-86
2021/07/22 01:37:34;;;;;;;20.60;14.73;;;19.40;1.00;;;;;;5053216;28;20044;-87
2021/07/22 01:40:00;;;;;;;18.83;15.05;;;19.50;1.00;;;;;;5055168;28;20392;-87
2021/07/22 01:42:26;;;;;;;18.13;13.93;;;19.50;99.90;;;;;;5053104;28;20036;-87
2021/07/22 01:44:51;;;;;;;20.98;14.65;;;19.40;1.00;;;;;;5054601;28;20017;-86
2021/07/22 01:47:17;;;;;;;19.95;14.77;;;19.30;1.00;;;;;;5053679;28;20037;-86
2021/07/22 01:49:43;;;;;;;20.63;13.60;;;19.10;1.00;;;;;;5052986;28;20459;-86
2021/07/22 01:52:08;;;;;;;18.75;14.60;;;19.20;1.00;;;;;;5054482;28;20047;-87
2021/07/22 01:54:34;;;;;;;21.10;14.77;;;19.20;1.00;;;;;;5053349;28;20024;-86
2021/07/22 01:57:01;;;;;;;19.45;14.55;;;19.20;1.00;;;;;;5034474;28;20389;-86
2021/07/22 01:59:35;;;;;;;21.05;14.88;;;19.20;1.00;;;;;;5053154;28;20033;-87
2021/07/22 02:02:05;;;;;;;18.83;13.70;;;19.20;1.00;;;;;;5053285;28;20104;-87
2021/07/22 02:04:31;;;;;;;17.52;13.57;;;19.10;1.00;;;;;;5052480;28;20439;-87
2021/07/22 02:06:57;;;;;;;21.55;14.68;;;19.10;1.00;;;;;;5052425;28;20028;-87
2021/07/22 02:09:23;;;;;;;21.02;14.15;;;19.00;1.00;;;;;;5052097;28;20033;-86
2021/07/22 02:11:49;;;;;;;19.15;14.55;;;18.80;1.00;;;;;;5052435;28;20469;-86
2021/07/22 02:14:15;;;;;;;18.52;14.32;;;18.80;1.00;;;;;;5053792;28;20025;-87
2021/07/22 02:16:40;;;;;;;20.48;14.55;;;18.90;1.00;;;;;;5052895;28;20613;-86
2021/07/22 02:19:06;;;;;;;18.65;14.27;;;19.00;1.00;;;;;;5052750;28;20049;-87
2021/07/22 02:21:32;;;;;;;17.10;13.95;;;19.10;1.00;;;;;;5034223;28;20397;-87
2021/07/22 02:23:57;;;;;;;19.88;14.40;;;19.00;1.00;;;;;;5051875;28;20021;-86
2021/07/22 02:26:23;;;;;;;20.45;14.23;;;18.80;1.00;;;;;;5052470;28;20044;-87
2021/07/22 02:28:51;;;;;;;19.58;14.00;;;18.80;1.00;;;;;;5052881;28;20040;-86
2021/07/22 02:31:16;;;;;;;18.85;14.05;;;18.70;1.00;;;;;;5052189;28;20404;-87
2021/07/22 02:33:42;;;;;;;19.38;14.90;;;18.70;1.00;;;;;;5052347;28;20039;-87
2021/07/22 02:36:08;;;;;;;19.85;13.95;;;18.80;1.00;;;;;;5047577;28;20053;-86
2021/07/22 02:38:34;;;;;;;19.23;14.40;;;18.80;1.00;;;;;;5052572;28;20033;-87
2021/07/22 02:41:00;;;;;;;18.92;14.00;;;18.90;1.00;;;;;;5052276;28;20028;-86
2021/07/22 02:43:25;;;;;;;19.23;14.05;;;18.80;1.00;;;;;;5033915;28;20037;-87
2021/07/22 02:45:51;;;;;;;18.48;13.77;;;18.80;1.00;;;;;;5052565;28;20083;-86
2021/07/22 02:48:17;;;;;;;19.63;14.88;;;18.70;1.00;;;;;;5051435;28;20095;-87
2021/07/22 02:50:43;;;;;;;20.00;15.35;;;18.70;1.00;;;;;;5034771;28;20025;-86
2021/07/22 02:53:08;;;;;;;21.85;15.30;;;18.60;1.00;;;;;;5033962;28;20458;-87
2021/07/22 02:55:34;;;;;;;24.10;15.45;;;18.60;1.00;;;;;;5053599;28;20103;-87
2021/07/22 02:58:06;;;;;;;18.83;14.35;;;18.50;1.00;;;;;;5055602;28;20039;-87
2021/07/22 03:00:32;;;;;;;25.23;14.43;;;18.40;1.00;;;;;;5056518;28;20550;-86
2021/07/22 03:03:02;;;;;;;19.35;14.45;;;18.40;1.00;;;;;;5039437;28;20087;-86
2021/07/22 03:05:30;;;;;;;17.55;14.20;;;18.50;1.00;;;;;;5056174;28;20082;-86
2021/07/22 03:07:59;;;;;;;18.27;14.05;;;18.50;1.00;;;;;;5056144;28;20036;-86
2021/07/22 03:10:25;;;;;;;18.42;14.48;;;18.40;1.00;;;;;;5055988;28;20039;-86
2021/07/22 03:12:52;;;;;;;19.42;14.50;;;18.40;1.00;;;;;;5038276;28;20021;-87
2021/07/22 03:15:18;;;;;;;20.08;14.40;;;18.30;1.00;;;;;;5055203;28;20032;-86
2021/07/22 03:17:44;;;;;;;17.90;14.00;;;18.30;1.00;;;;;;5056205;28;20021;-87
2021/07/22 03:20:10;;;;;;;18.67;14.48;;;18.30;1.00;;;;;;5055439;28;20033;-87
2021/07/22 03:22:36;;;;;;;23.35;14.68;;;18.50;1.00;;;;;;5055808;28;20060;-87
2021/07/22 03:25:02;;;;;;;20.02;14.38;;;18.40;1.00;;;;;;5056720;28;20056;-86
2021/07/22 03:27:27;;;;;;;18.67;14.63;;;18.40;1.00;;;;;;5037599;28;20485;-87
2021/07/22 03:29:53;;;;;;;20.85;14.43;;;18.30;1.00;;;;;;5055395;28;20120;-86
2021/07/22 03:32:19;;;;;;;22.85;14.57;;;18.40;1.00;;;;;;5055502;28;20401;-86
2021/07/22 03:34:44;;;;;;;17.98;14.00;;;18.40;1.00;;;;;;5091437;22;20148;-89
2021/07/22 03:37:10;;;;;;;21.60;14.50;;;18.40;1.00;;;;;;5112343;28;20513;-89
2021/07/22 03:39:36;;;;;;;20.42;13.25;;;18.20;1.00;;;;;;5095913;28;20039;-89
2021/07/22 03:42:02;;;;;;;20.60;14.30;;;18.20;1.00;;;;;;5100028;28;20028;-89
2021/07/22 03:44:27;;;;;;;18.85;14.73;;;18.20;1.00;;;;;;5084000;28;20036;-89
2021/07/22 03:46:53;;;;;;;18.58;13.57;;;18.10;1.00;;;;;;5108103;28;20022;-90
2021/07/22 03:49:19;;;;;;;20.15;14.50;;;18.10;1.00;;;;;;5093356;28;20042;-90
2021/07/22 03:51:44;;;;;;;21.92;14.00;;;18.10;1.00;;;;;;5093811;28;20012;-89
2021/07/22 03:54:10;;;;;;;18.88;14.15;;;18.10;1.00;;;;;;5099029;28;20064;-89
2021/07/22 03:56:36;;;;;;;18.40;14.00;;;18.10;1.00;;;;;;5100956;28;20032;-90
2021/07/22 03:59:01;;;;;;;18.30;14.25;;;18.00;1.00;;;;;;5100471;28;20064;-89
2021/07/22 04:01:27;;;;;;;23.00;15.52;;;18.00;1.00;;;;;;5099936;28;20028;-89
2021/07/22 04:03:56;;;;;;;19.45;14.20;;;18.10;1.00;;;;;;5078377;28;20024;-89
2021/07/22 04:06:21;;;;;;;19.75;14.00;;;18.20;1.00;;;;;;5097440;28;20475;-89
2021/07/22 04:08:47;;;;;;;19.92;14.82;;;18.20;1.00;;;;;;5099004;28;20032;-89
2021/07/22 04:11:13;;;;;;;19.02;14.20;;;18.20;1.00;;;;;;5081622;28;20103;-89
2021/07/22 04:13:38;;;;;;;20.60;13.98;;;18.30;1.00;;;;;;5099964;28;20043;-90
2021/07/22 04:16:05;;;;;;;21.83;13.93;;;18.30;1.00;;;;;;5081709;28;20050;-89
2021/07/22 04:18:31;;;;;;;20.00;14.32;;;18.30;1.00;;;;;;5096275;28;20077;-89
2021/07/22 04:20:57;;;;;;;21.00;14.27;;;18.20;1.00;;;;;;5082492;28;20078;-89
2021/07/22 04:23:22;;;;;;;18.38;14.05;;;18.20;1.00;;;;;;5081527;28;20526;-89
2021/07/22 04:25:48;;;;;;;21.30;14.65;;;18.10;1.00;;;;;;5081563;28;20093;-89
2021/07/22 04:28:14;;;;;;;16.73;13.63;;;18.00;1.00;;;;;;5100770;28;20034;-90
2021/07/22 04:30:39;;;;;;;20.17;14.75;;;18.10;1.00;;;;;;5077358;28;20036;-89
2021/07/22 04:33:06;;;;;;;21.45;14.10;;;18.00;1.00;;;;;;5080229;28;20020;-89
2021/07/22 04:35:32;;;;;;;17.05;13.27;;;18.00;1.00;;;;;;5099242;28;20052;-89
2021/07/22 04:37:59;;;;;;;18.42;14.13;;;18.00;1.00;;;;;;5099673;28;20028;-89
2021/07/22 04:40:24;;;;;;;23.23;14.65;;;18.00;1.00;;;;;;5081555;28;20042;-89
2021/07/22 04:42:50;;;;;;;20.25;14.40;;;18.00;1.00;;;;;;5095723;28;20024;-89
2021/07/22 04:45:16;;;;;;;18.75;13.90;;;18.00;1.00;;;;;;5097348;28;20063;-89
2021/07/22 04:47:45;;;;;;;23.00;14.48;;;18.00;1.00;;;;;;5098871;28;20077;-89
2021/07/22 04:50:11;;;;;;;20.13;13.88;;;18.10;1.00;;;;;;5099430;28;20050;-89
2021/07/22 04:52:37;;;;;;;18.05;13.70;;;18.10;1.00;;;;;;5099340;28;20028;-90
2021/07/22 04:55:03;;;;;;;19.98;13.85;;;18.20;1.00;;;;;;5079534;28;20102;-89
2021/07/22 04:57:28;;;;;;;18.73;14.27;;;18.20;1.00;;;;;;5095207;28;20402;-89
2021/07/22 04:59:54;;;;;;;19.05;13.68;;;18.20;1.00;;;;;;5082516;28;20051;-89
2021/07/22 05:02:20;;;;;;;21.25;13.75;;;18.20;1.00;;;;;;5098729;28;20032;-89
2021/07/22 05:04:46;;;;;;;20.38;13.52;;;18.30;1.00;;;;;;5081837;28;20400;-89
2021/07/22 05:07:15;;;;;;;26.58;15.02;;;18.40;1.00;;;;;;5080987;28;20059;-90
2021/07/22 05:09:41;;;;;;;23.10;14.32;;;18.40;1.00;;;;;;5077552;28;20028;-89
2021/07/22 05:12:07;;;;;;;27.42;14.48;;;18.50;1.00;;;;;;5097789;28;20081;-90
2021/07/22 05:14:34;;;;;;;35.10;15.35;;;18.50;1.00;;;;;;5100192;28;20372;-91
2021/07/22 05:17:00;;;;;;;27.27;14.43;;;18.60;1.00;;;;;;5098353;28;20081;-92
2021/07/22 05:19:26;;;;;;;27.55;14.32;;;18.70;1.00;;;;;;5099395;28;20035;-91
2021/07/22 05:21:51;;;;;;;23.00;14.60;;;18.70;1.00;;;;;;5077275;28;20147;-91
2021/07/22 05:24:17;;;;;;;25.40;14.45;;;18.60;1.00;;;;;;5114161;28;20042;-93
2021/07/22 05:26:43;;;;;;;25.88;14.30;;;18.70;1.00;;;;;;5099423;28;20020;-89
2021/07/22 05:29:08;;;;;;;21.50;13.48;;;18.60;1.00;;;;;;5099316;28;20120;-92
2021/07/22 05:31:38;;;;;;;20.42;14.00;;;18.60;1.00;;;;;;5103393;28;20024;-94
2021/07/22 05:34:04;;;;;;;23.98;14.30;;;18.60;1.00;;;;;;5091925;28;20830;-91
2021/07/22 05:36:29;;;;;;;18.58;13.80;;;18.60;1.00;;;;;;5095237;28;20111;-90
2021/07/22 05:38:55;;;;;;;20.30;12.95;;;18.60;1.00;;;;;;5099361;28;20411;-90
2021/07/22 05:41:21;;;;;;;20.35;13.18;;;18.50;1.00;;;;;;5098072;28;20118;-91
2021/07/22 05:43:46;;;;;;;21.38;14.40;;;18.60;1.00;;;;;;5079500;28;20077;-90
2021/07/22 05:46:12;;;;;;;19.85;14.13;;;18.70;1.00;;;;;;5098644;28;20027;-90
2021/07/22 05:48:38;;;;;;;19.88;13.85;;;18.90;1.00;;;;;;5076402;28;20035;-90
2021/07/22 05:51:03;;;;;;;19.10;14.50;;;18.90;1.00;;;;;;5097623;28;20024;-90
2021/07/22 05:53:29;;;;;;;19.00;14.45;;;18.90;1.00;;;;;;5079694;28;20028;-91
2021/07/22 05:56:02;;;;;;;16.98;13.65;;;19.00;1.00;;;;;;5098011;28;20403;-90
2021/07/22 05:58:27;;;;;;;20.92;13.25;;;18.90;1.00;;;;;;5097706;28;20043;-93
2021/07/22 06:00:53;;;;;;;19.05;14.38;;;19.00;1.00;;;;;;5078529;28;20350;-92
2021/07/22 06:03:19;;;;;;;18.27;13.77;;;19.10;1.00;;;;;;5097242;28;20027;-92
2021/07/22 06:05:45;;;;;;;23.42;14.65;;;19.20;1.00;;;;;;5080591;28;20519;-92
2021/07/22 06:08:10;;;;;;;20.25;14.48;;;19.30;1.00;;;;;;5081215;28;20044;-92
2021/07/22 06:10:38;;;;;;;21.73;13.52;;;19.40;1.00;;;;;;5098462;28;20185;-92
2021/07/22 06:13:03;;;;;;;21.67;14.65;;;19.50;1.00;;;;;;5099048;28;20031;-92
2021/07/22 06:15:29;;;;;;;20.42;14.27;;;19.70;1.00;;;;;;5112236;28;20023;-93
2021/07/22 06:17:55;;;;;;;20.77;14.93;;;19.70;1.00;;;;;;5082258;28;20037;-93
2021/07/22 06:20:20;;;;;;;22.85;14.60;;;19.80;1.00;;;;;;5082958;28;20502;-94
2021/07/22 06:22:46;;;;;;;21.65;14.43;;;19.90;1.00;;;;;;5103577;28;20028;-96
2021/07/22 06:25:14;;;;;;;19.17;14.40;;;19.70;99.90;;;;;;5083345;28;20394;-96
2021/07/22 06:27:41;;;;;;;22.23;15.30;;;20.10;99.90;;;;;;5111070;28;20052;-92
2021/07/22 06:30:08;;;;;;;20.33;14.68;;;20.10;99.90;;;;;;5097648;28;20021;-96
2021/07/22 06:32:34;;;;;;;21.95;14.95;;;20.30;99.90;;;;;;5080560;28;20030;-96
2021/07/22 06:35:00;;;;;;;22.90;14.82;;;20.40;99.90;;;;;;5082574;28;20047;-96
2021/07/22 06:37:25;;;;;;;20.08;15.05;;;20.40;99.90;;;;;;5092865;28;20032;-95
2021/07/22 06:39:51;;;;;;;20.98;14.98;;;20.40;99.90;;;;;;5079720;28;20028;-95
2021/07/22 06:42:17;;;;;;;23.77;15.35;;;20.20;99.90;;;;;;5079144;28;20025;-96
2021/07/22 06:44:42;;;;;;;22.05;15.07;;;20.30;99.90;;;;;;5080932;28;20503;-92
2021/07/22 06:47:08;;;;;;;23.00;15.98;;;20.40;99.90;;;;;;5107868;28;20031;-93
2021/07/22 06:49:34;;;;;;;24.25;14.88;;;20.40;99.90;;;;;;5107428;28;20028;-93
2021/07/22 06:52:00;;;;;;;24.50;14.75;;;20.50;99.90;;;;;;5096260;28;20035;-93
2021/07/22 06:54:25;;;;;;;20.70;15.00;;;20.60;99.90;;;;;;5078637;28;20020;-93
2021/07/22 06:56:51;;;;;;;23.98;14.98;;;20.80;99.90;;;;;;5079530;28;20074;-93
2021/07/22 06:59:17;;;;;;;19.88;14.88;;;20.80;99.90;;;;;;5079968;28;20106;-93
2021/07/22 07:01:42;;;;;;;19.55;14.57;;;20.80;99.90;;;;;;5080880;28;20032;-93
2021/07/22 07:04:08;;;;;;;22.40;16.00;;;20.80;99.90;;;;;;5098502;28;20043;-93
2021/07/22 07:06:35;;;;;;;21.38;15.23;;;20.90;99.90;;;;;;5112331;28;20054;-92
2021/07/22 07:09:04;;;;;;;20.38;15.13;;;21.00;99.90;;;;;;5099218;28;20036;-94
2021/07/22 07:11:30;;;;;;;20.25;14.40;;;21.10;99.90;;;;;;5097824;28;20031;-92
2021/07/22 07:13:56;;;;;;;18.17;14.85;;;21.20;99.90;;;;;;5099041;28;20031;-92
2021/07/22 07:16:21;;;;;;;24.15;16.38;;;21.40;99.90;;;;;;5079842;28;20031;-93
2021/07/22 07:18:47;;;;;;;23.50;15.55;;;21.40;99.90;;;;;;5075948;28;20023;-93
2021/07/22 07:21:13;;;;;;;22.38;15.07;;;21.40;99.90;;;;;;5079528;28;20073;-93
2021/07/22 07:23:39;;;;;;;20.15;14.70;;;21.50;99.90;;;;;;5097684;28;20043;-93
2021/07/22 07:26:08;;;;;;;20.35;15.40;;;21.60;99.90;;;;;;5087784;28;20510;-94
2021/07/22 07:28:34;;;;;;;18.77;14.02;;;21.60;99.90;;;;;;5108372;28;20036;-94
2021/07/22 07:31:00;;;;;;;20.65;14.80;;;21.70;99.90;;;;;;5097221;28;20024;-93
2021/07/22 07:33:28;;;;;;;18.48;14.93;;;21.80;99.90;;;;;;5096406;28;20028;-93
2021/07/22 07:35:54;;;;;;;20.40;14.63;;;21.80;99.90;;;;;;5095086;28;20056;-93
2021/07/22 07:38:20;;;;;;;23.88;14.60;;;21.90;99.90;;;;;;5096846;28;20024;-93
2021/07/22 07:40:46;;;;;;;20.58;15.48;;;21.90;99.90;;;;;;5092534;28;20028;-94
2021/07/22 07:43:19;;;;;;;22.27;15.55;;;21.90;99.90;;;;;;5078859;28;20016;-94
2021/07/22 07:45:45;;;;;;;20.58;15.27;;;22.00;99.90;;;;;;5114339;28;20032;-94
2021/07/22 07:48:11;;;;;;;22.85;15.32;;;21.80;99.90;;;;;;5113133;28;20047;-92
2021/07/22 07:50:37;;;;;;;22.77;15.05;;;21.90;99.90;;;;;;5097001;28;20032;-91
2021/07/22 07:53:13;;;;;;;18.65;14.45;;;22.00;99.90;;;;;;5101335;28;20028;-95
2021/07/22 07:55:40;;;;;;;22.42;13.73;;;22.10;99.90;;;;;;5084898;28;20408;-92
2021/07/22 07:58:06;;;;;;;22.58;15.43;;;22.40;99.90;;;;;;5097633;28;20396;-92
2021/07/22 08:00:32;;;;;;;21.08;15.73;;;22.50;99.90;;;;;;5094769;28;20483;-93
2021/07/22 08:02:58;;;;;;;23.67;16.33;;;22.50;99.90;;;;;;5077210;28;20029;-93
2021/07/22 08:05:24;;;;;;;24.13;15.63;;;22.60;99.90;;;;;;5087858;28;20024;-93
2021/07/22 08:07:50;;;;;;;22.02;16.17;;;22.50;99.90;;;;;;5095058;28;20500;-94
2021/07/22 08:10:16;;;;;;;19.08;15.52;;;22.50;99.90;;;;;;5080952;28;20035;-94
2021/07/22 08:12:42;;;;;;;20.48;16.15;;;22.70;99.90;;;;;;5077331;28;20392;-93
2021/07/22 08:15:09;;;;;;;22.23;16.00;;;22.90;99.90;;;;;;5096083;28;20051;-93
2021/07/22 08:17:35;;;;;;;21.83;15.63;;;22.90;99.90;;;;;;5096022;28;20032;-94
2021/07/22 08:20:02;;;;;;;20.02;15.32;;;22.90;99.90;;;;;;5095114;28;20072;-94
2021/07/22 08:22:28;;;;;;;19.35;14.95;;;22.90;99.90;;;;;;5094929;28;20043;-94
2021/07/22 08:24:54;;;;;;;20.75;15.88;;;23.10;99.90;;;;;;5077603;28;20020;-94
2021/07/22 08:27:27;;;;;;;19.63;15.35;;;23.00;99.90;;;;;;5095689;28;20179;-94
2021/07/22 08:29:53;;;;;;;22.77;15.73;;;23.10;99.90;;;;;;5084911;28;20099;-94
2021/07/22 08:32:20;;;;;;;20.92;16.00;;;22.90;99.90;;;;;;5094916;28;20036;-94
2021/07/22 08:34:45;;;;;;;19.70;16.13;;;23.00;99.90;;;;;;5084438;28;20045;-93
2021/07/22 08:37:11;;;;;;;21.35;16.73;;;23.00;99.90;;;;;;5080206;28;20024;-94
2021/07/22 08:39:38;;;;;;;20.20;16.55;;;23.10;99.90;;;;;;5096290;28;20408;-94
2021/07/22 08:42:08;;;;;;;26.67;15.82;;;23.30;99.90;;;;;;5082287;28;20384;-94
2021/07/22 08:44:38;;;;;;;22.17;16.08;;;23.30;99.90;;;;;;5094563;28;20032;-93
2021/07/22 08:47:09;;;;;;;23.45;15.95;;;23.30;99.90;;;;;;5094727;28;20418;-94
2021/07/22 08:49:37;;;;;;;18.48;16.08;;;23.30;99.90;;;;;;5094779;28;20052;-94
2021/07/22 08:52:08;;;;;;;20.92;15.40;;;23.50;99.90;;;;;;5094404;28;20020;-94
2021/07/22 08:54:34;;;;;;;20.95;15.48;;;23.60;99.90;;;;;;5094313;28;20024;-93
2021/07/22 08:57:01;;;;;;;19.88;15.60;;;23.80;99.90;;;;;;5094567;28;20052;-93
2021/07/22 08:59:31;;;;;;;19.58;15.95;;;23.80;99.90;;;;;;5094296;28;20028;-94
2021/07/22 09:01:59;;;;;;;21.98;15.65;;;23.80;99.90;;;;;;5094843;28;20088;-93
2021/07/22 09:04:25;;;;;;;20.05;16.08;;;23.70;99.90;;;;;;5094242;28;20081;-94
2021/07/22 09:06:50;;;;;;;21.40;17.02;;;23.70;99.90;;;;;;5077834;28;20074;-93
2021/07/22 09:09:17;;;;;;;21.20;15.98;;;23.80;99.90;;;;;;5080532;28;20173;-94
2021/07/22 09:11:57;;;;;;;19.42;15.65;;;23.70;99.90;;;;;;5082454;28;20069;-94
2021/07/22 09:14:24;;;;;;;21.05;15.63;;;23.80;99.90;;;;;;5094267;28;20032;-94
2021/07/22 09:16:50;;;;;;;21.77;15.88;;;23.90;99.90;;;;;;5094260;28;20228;-93
2021/07/22 09:19:38;;;;;;;20.65;16.00;;;24.00;99.90;;;;;;5078524;28;20063;-93
2021/07/22 09:22:05;;;;;;;20.35;16.35;;;24.00;99.90;;;;;;5080569;28;20024;-94
2021/07/22 09:24:47;;;;;;;19.13;15.80;;;24.10;99.90;;;;;;5077784;28;20032;-94
2021/07/22 09:27:40;;;;;;;20.50;16.60;;;24.40;99.90;;;;;;5074458;28;20016;-93
2021/07/22 09:30:10;;;;;;;19.40;15.40;;;24.40;99.90;;;;;;5017247;28;20496;-93
2021/07/22 09:32:39;;;;;;;24.73;16.33;;;24.30;99.90;;;;;;5017571;28;20046;-93
2021/07/22 09:35:09;;;;;;;20.95;16.13;;;24.60;99.90;;;;;;5009220;28;20077;-93
2021/07/22 09:37:45;;;;;;;20.05;16.58;;;24.70;99.90;;;;;;5026796;28;20041;-94
2021/07/22 09:40:16;;;;;;;19.65;15.32;;;24.90;99.90;;;;;;5002036;28;20064;-93
2021/07/22 09:42:45;;;;;;;21.38;16.38;;;25.10;99.90;;;;;;4995951;28;20096;-94
2021/07/22 09:45:16;;;;;;;18.42;16.05;;;25.10;99.90;;;;;;5011273;28;20516;-93
2021/07/22 09:47:42;;;;;;;21.35;15.70;;;25.00;99.90;;;;;;5013830;28;20056;-94
2021/07/22 09:50:13;;;;;;;20.98;15.75;;;25.20;99.90;;;;;;5006564;28;20026;-94
2021/07/22 09:52:39;;;;;;;17.90;15.32;;;25.30;99.90;;;;;;5018056;28;20026;-93
2021/07/22 09:55:27;;;;;;;21.13;15.95;;;25.20;99.90;;;;;;5015494;28;20437;-92
2021/07/22 09:58:08;;;;;;;21.85;16.23;;;25.20;99.90;;;;;;5001331;28;20029;-93
2021/07/22 10:00:37;;;;;;;17.98;15.52;;;25.30;99.90;;;;;;5013988;28;20034;-93
2021/07/22 10:03:04;;;;;;;22.58;15.75;;;25.40;99.90;;;;;;4996627;28;20034;-93
2021/07/22 10:05:34;;;;;;;19.60;15.55;;;25.60;99.90;;;;;;5016748;28;20132;-93
2021/07/22 10:08:00;;;;;;;22.80;16.17;;;25.80;99.90;;;;;;5072728;28;20067;-93
2021/07/22 10:10:28;;;;;;;20.23;15.60;;;26.10;99.90;;;;;;5080192;28;20124;-93
2021/07/22 10:12:58;;;;;;;20.33;16.25;;;26.10;99.90;;;;;;5093305;28;20024;-93
2021/07/22 10:15:29;;;;;;;18.15;15.82;;;26.00;99.90;;;;;;5093097;28;20028;-93
2021/07/22 10:17:59;;;;;;;21.88;16.27;;;26.00;99.90;;;;;;5091800;28;20028;-93
2021/07/22 10:20:29;;;;;;;19.33;14.80;;;26.20;99.90;;;;;;5092931;28;20024;-93
2021/07/22 10:22:59;;;;;;;18.20;15.23;;;26.00;99.90;;;;;;5093368;28;20035;-93
2021/07/22 10:25:29;;;;;;;17.40;14.30;;;26.20;99.90;;;;;;5074337;28;20039;-95
2021/07/22 10:27:58;;;;;;;18.80;14.77;;;26.40;99.90;;;;;;5076255;28;20028;-96
2021/07/22 10:30:25;;;;;;;18.48;15.23;;;26.40;99.90;;;;;;5093137;28;20024;-93
2021/07/22 10:32:59;;;;;;;19.17;15.30;;;26.50;99.90;;;;;;5090079;28;20074;-95
2021/07/22 10:35:28;;;;;;;20.50;15.35;;;26.30;99.90;;;;;;5075460;28;20061;-95
2021/07/22 10:38:14;;;;;;;18.42;15.40;;;26.40;99.90;;;;;;5094271;28;20036;-94
2021/07/22 10:40:59;;;;;;;19.40;15.90;;;26.70;99.90;;;;;;5092816;28;20051;-96
2021/07/22 10:43:34;;;;;;;18.45;14.50;;;26.60;99.90;;;;;;5091936;28;20504;-95
2021/07/22 10:46:10;;;;;;;20.52;15.10;;;26.90;99.90;;;;;;5078852;28;20455;-95
2021/07/22 10:48:37;;;;;;;19.88;15.30;;;27.10;99.90;;;;;;5092963;28;20047;-96
2021/07/22 10:51:05;;;;;;;18.88;15.02;;;27.30;99.90;;;;;;5084703;28;20020;-95
2021/07/22 10:53:54;;;;;;;18.88;15.18;;;27.60;99.90;;;;;;5076777;28;20055;-95
2021/07/22 10:56:23;;;;;;;18.75;15.18;;;27.80;99.90;;;;;;5071942;28;20035;-95
2021/07/22 10:58:50;;;;;;;21.42;15.68;;;27.90;99.90;;;;;;5087059;28;20606;-94
2021/07/22 11:01:41;;;;;;;22.38;15.20;;;27.90;99.90;;;;;;5077779;28;20511;-96
2021/07/22 11:04:16;;;;;;;17.98;15.20;;;27.70;99.90;;;;;;5071400;28;20024;-94
2021/07/22 11:07:18;;;;;;;18.67;15.45;;;27.80;99.90;;;;;;5088705;28;20063;-91
2021/07/22 11:09:49;;;;;;;18.50;15.23;;;27.60;99.90;;;;;;5079540;28;20048;-93
2021/07/22 11:12:44;;;;;;;16.80;14.73;;;27.60;99.90;;;;;;5088001;28;20027;-92
2021/07/22 11:15:35;;;;;;;19.08;15.38;;;27.70;99.90;;;;;;5091491;28;20016;-89
2021/07/22 11:18:21;;;;;;;22.10;16.13;;;27.70;99.90;;;;;;5069079;28;20032;-93
2021/07/22 11:20:47;;;;;;;20.98;15.15;;;27.70;99.90;;;;;;5096962;28;20027;-96
2021/07/22 11:23:15;;;;;;;18.25;14.88;;;27.80;99.90;;;;;;5095991;28;20462;-88
2021/07/22 11:25:45;;;;;;;17.15;14.63;;;27.80;99.90;;;;;;5072667;28;20110;-88
2021/07/22 11:28:11;;;;;;;17.48;15.10;;;28.30;99.90;;;;;;5091877;28;20600;-88
2021/07/22 11:30:37;;;;;;;18.30;14.68;;;28.60;99.90;;;;;;5093864;28;20059;-89
2021/07/22 11:33:16;;;;;;;18.08;14.85;;;28.50;99.90;;;;;;5088495;28;20083;-93
2021/07/22 11:35:53;;;;;;;17.10;14.63;;;28.80;99.90;;;;;;5071249;28;20526;-88
2021/07/22 11:38:18;;;;;;;17.13;14.18;;;29.10;99.90;;;;;;5074998;28;20423;-89
2021/07/22 11:40:44;;;;;;;16.30;14.18;;;29.50;99.90;;;;;;5077753;28;20100;-89
2021/07/22 11:43:10;;;;;;;19.17;14.70;;;30.10;99.90;;;;;;5074825;28;20482;-89
2021/07/22 11:45:43;;;;;;;17.35;15.05;;;30.30;99.90;;;;;;5056641;28;20033;-89
2021/07/22 11:48:25;;;;;;;16.08;14.38;;;32.30;99.90;;;;;;5079276;28;20062;-89
2021/07/22 11:51:05;;;;;;;19.45;14.52;;;35.10;99.90;;;;;;5078828;28;20037;-89
2021/07/22 11:53:31;;;;;;;15.80;13.82;;;37.30;99.90;;;;;;5076809;28;20119;-89
2021/07/22 11:56:00;;;;;;;17.35;14.32;;;38.10;99.90;;;;;;5077490;28;20020;-89
2021/07/22 11:58:26;;;;;;;16.00;14.02;;;38.90;99.90;;;;;;5059618;28;20501;-89
2021/07/22 12:00:53;;;;;;;17.23;14.82;;;39.90;99.90;;;;;;5072134;28;20025;-89
2021/07/22 12:03:23;;;;;;;15.50;13.23;;;40.50;99.90;;;;;;5078095;28;20024;-89
2021/07/22 12:05:49;;;;;;;15.60;13.90;;;40.60;99.90;;;;;;5078538;28;20027;-89
2021/07/22 12:08:16;;;;;;;15.60;13.95;;;41.00;99.90;;;;;;5075621;28;20036;-90
2021/07/22 12:10:42;;;;;;;16.50;13.88;;;40.10;99.90;;;;;;5077054;28;20029;-90
2021/07/22 12:13:08;;;;;;;16.33;14.63;;;40.90;99.90;;;;;;5076013;28;20376;-90
2021/07/22 12:15:36;;;;;;;15.45;13.82;;;41.20;99.90;;;;;;5056454;28;20157;-89
2021/07/22 12:18:03;;;;;;;14.98;13.52;;;41.10;99.90;;;;;;5060686;28;20078;-90
2021/07/22 12:20:28;;;;;;;16.98;13.40;;;42.20;99.90;;;;;;5077039;28;20036;-90
2021/07/22 12:22:54;;;;;;;15.50;13.90;;;41.50;99.90;;;;;;5076057;28;20028;-90
2021/07/22 12:25:20;;;;;;;15.30;13.82;;;41.80;99.90;;;;;;5059128;28;20491;-90
2021/07/22 12:27:49;;;;;;;16.08;14.38;;;42.00;99.90;;;;;;5054797;28;20067;-90
2021/07/22 12:30:26;;;;;;;15.80;14.20;;;42.20;99.90;;;;;;5086557;28;20511;-91
2021/07/22 12:32:53;;;;;;;15.68;14.07;;;42.30;99.90;;;;;;5078032;28;20035;-90